Time;durP1;ratioP1;P1;durP2;ratioP2;P2;SDS_P1;SDS_P2;PMS_P1;PMS_P2;Temp;Humidity;BMP_temperature;BMP_pressure;BME280_temperature;BME280_humidity;BME280_pressure;Samples;Min_cycle;Max_cycle;Signal;HPM_P1;HPM_P2
2021/11/23 00:02:15;;;;;;;16.33;7.45;;;;;;;;;;5036413;28;20186;-64
2021/11/23 00:04:41;;;;;;;11.23;6.63;;;;;;;;;;5037921;28;20028;-64
2021/11/23 00:07:06;;;;;;;10.05;5.78;;;;;;;;;;5048189;28;20029;-64
2021/11/23 00:09:32;;;;;;;13.30;6.43;;;;;;;;;;5045136;28;20037;-64
2021/11/23 00:11:58;;;;;;;10.30;6.10;;;;;;;;;;5028937;28;20108;-64
2021/11/23 00:14:24;;;;;;;12.55;6.22;;;;;;;;;;5043219;28;20132;-64
2021/11/23 00:16:50;;;;;;;9.80;6.18;;;;;;;;;;5043630;28;20036;-64
2021/11/23 00:19:15;;;;;;;7.90;5.90;;;;;;;;;;5040209;28;20034;-64
2021/11/23 00:21:41;;;;;;;9.30;6.35;;;;;;;;;;5043605;28;20070;-64
2021/11/23 00:24:07;;;;;;;11.30;6.38;;;;;;;;;;5040094;28;20811;-64
2021/11/23 00:26:33;;;;;;;10.23;6.32;;;;;;;;;;5041142;28;20090;-64
2021/11/23 00:28:58;;;;;;;13.68;6.30;;;;;;;;;;5045424;28;20021;-64
2021/11/23 00:31:23;;;;;;;9.38;6.20;;;;;;;;;;5026716;28;20111;-64
2021/11/23 00:33:49;;;;;;;9.27;6.53;;;;;;;;;;5048598;28;20029;-64
2021/11/23 00:36:14;;;;;;;9.32;6.18;;;;;;;;;;5040593;28;20098;-64
2021/11/23 00:38:44;;;;;;;9.77;6.20;;;;;;;;;;5042665;28;20397;-64
2021/11/23 00:41:10;;;;;;;10.15;6.38;;;;;;;;;;5041076;28;20108;-64
2021/11/23 00:43:36;;;;;;;9.30;6.15;;;;;;;;;;5035557;28;20045;-64
2021/11/23 00:46:01;;;;;;;10.80;6.20;;;;;;;;;;5031545;28;20059;-64
2021/11/23 00:48:27;;;;;;;11.48;6.63;;;;;;;;;;5042085;28;20037;-64
2021/11/23 00:50:52;;;;;;;12.32;6.57;;;;;;;;;;5042346;28;20099;-64
2021/11/23 00:53:18;;;;;;;11.93;6.15;;;;;;;;;;5039044;28;20047;-64
2021/11/23 00:55:43;;;;;;;11.73;6.55;;;;;;;;;;5044018;28;20035;-64
2021/11/23 00:58:08;;;;;;;9.82;6.13;;;;;;;;;;5045124;28;20033;-64
2021/11/23 01:00:35;;;;;;;11.88;6.50;;;;;;;;;;5018315;28;20079;-64
2021/11/23 01:03:01;;;;;;;21.85;8.23;;;;;;;;;;5045541;28;20072;-64
2021/11/23 01:05:26;;;;;;;17.75;8.45;;;;;;;;;;5042472;28;20037;-64
2021/11/23 01:07:52;;;;;;;57.17;32.20;;;;;;;;;;5023997;28;20052;-64
2021/11/23 01:10:17;;;;;;;30.17;16.83;;;;;;;;;;5039928;28;20099;-64
2021/11/23 01:12:43;;;;;;;25.20;16.77;;;;;;;;;;5044227;28;20033;-64
2021/11/23 01:15:09;;;;;;;18.08;12.25;;;;;;;;;;5039924;28;20371;-64
2021/11/23 01:17:36;;;;;;;13.45;7.55;;;;;;;;;;5025769;28;20026;-64
2021/11/23 01:20:04;;;;;;;13.00;7.40;;;;;;;;;;5020446;28;20048;-64
2021/11/23 01:22:30;;;;;;;15.88;7.00;;;;;;;;;;5041273;28;20194;-64
2021/11/23 01:24:55;;;;;;;10.68;7.00;;;;;;;;;;5038654;28;20416;-64
2021/11/23 01:27:21;;;;;;;10.30;6.70;;;;;;;;;;5045296;28;20021;-64
2021/11/23 01:29:46;;;;;;;11.48;6.65;;;;;;;;;;5043870;28;20029;-64
2021/11/23 01:32:11;;;;;;;11.32;7.18;;;;;;;;;;5047621;28;20135;-64
2021/11/23 01:34:37;;;;;;;14.77;7.90;;;;;;;;;;5040740;28;20171;-64
2021/11/23 01:37:02;;;;;;;15.68;8.07;;;;;;;;;;5042367;28;20028;-64
2021/11/23 01:39:28;;;;;;;12.48;7.25;;;;;;;;;;5041293;28;20025;-64
2021/11/23 01:41:54;;;;;;;10.50;6.60;;;;;;;;;;5025723;28;20154;-64
2021/11/23 01:44:20;;;;;;;15.10;6.93;;;;;;;;;;5043292;28;20044;-65
2021/11/23 01:46:45;;;;;;;16.08;7.65;;;;;;;;;;5040056;28;20470;-64
2021/11/23 01:49:11;;;;;;;14.68;7.78;;;;;;;;;;5047059;28;20029;-64
2021/11/23 01:51:36;;;;;;;20.80;9.38;;;;;;;;;;5043210;28;20064;-64
2021/11/23 01:54:02;;;;;;;13.32;7.60;;;;;;;;;;5042991;28;20031;-64
2021/11/23 01:56:27;;;;;;;14.35;7.53;;;;;;;;;;5040953;28;20029;-64
2021/11/23 01:58:54;;;;;;;14.15;7.95;;;;;;;;;;5038258;28;20413;-64
2021/11/23 02:01:19;;;;;;;17.38;8.52;;;;;;;;;;5040828;28;20033;-64
2021/11/23 02:03:45;;;;;;;24.05;11.77;;;;;;;;;;5043172;28;20021;-64
2021/11/23 02:06:10;;;;;;;19.02;9.82;;;;;;;;;;5039494;28;20025;-64
2021/11/23 02:08:36;;;;;;;20.55;9.52;;;;;;;;;;5042698;28;20025;-64
2021/11/23 02:11:02;;;;;;;18.17;9.73;;;;;;;;;;5037776;28;20561;-64
2021/11/23 02:13:29;;;;;;;19.30;9.35;;;;;;;;;;5045474;28;20215;-64
2021/11/23 02:15:56;;;;;;;21.60;11.23;;;;;;;;;;5039931;28;20025;-64
2021/11/23 02:18:23;;;;;;;;;;;;;;;;;;5036562;28;20030;-64
2021/11/23 02:20:50;;;;;;;22.08;10.68;;;;;;;;;;5039683;28;19912;-64
2021/11/23 02:23:17;;;;;;;23.13;10.15;;;;;;;;;;5037540;28;20024;-64
2021/11/23 02:25:43;;;;;;;16.42;8.25;;;;;;;;;;5037093;28;20044;-64
2021/11/23 02:28:09;;;;;;;15.70;8.23;;;;;;;;;;5041639;28;20031;-64
2021/11/23 02:30:41;;;;;;;14.75;8.23;;;;;;;;;;5039520;28;20135;-64
2021/11/23 02:33:06;;;;;;;14.05;7.82;;;;;;;;;;5046062;28;20037;-64
2021/11/23 02:35:33;;;;;;;10.70;7.20;;;;;;;;;;5040347;28;20027;-64
2021/11/23 02:37:59;;;;;;;11.82;7.28;;;;;;;;;;5039678;28;20032;-64
2021/11/23 02:40:25;;;;;;;12.55;8.40;;;;;;;;;;5019724;28;20029;-64
2021/11/23 02:42:50;;;;;;;12.23;7.10;;;;;;;;;;5038662;28;20032;-64
2021/11/23 02:45:18;;;;;;;13.95;9.10;;;;;;;;;;5039188;28;20105;-64
2021/11/23 02:47:44;;;;;;;12.10;6.65;;;;;;;;;;5038834;28;20072;-64
2021/11/23 02:50:12;;;;;;;12.95;6.68;;;;;;;;;;5029948;28;20482;-64
2021/11/23 02:52:38;;;;;;;11.85;7.03;;;;;;;;;;5034103;28;20025;-64
2021/11/23 02:55:05;;;;;;;10.45;7.05;;;;;;;;;;5037711;28;20084;-64
2021/11/23 02:57:32;;;;;;;12.27;7.68;;;;;;;;;;5040533;28;20029;-64
2021/11/23 02:59:58;;;;;;;;;;;;;;;;;;5037722;28;20060;-64
2021/11/23 03:02:24;;;;;;;14.02;8.98;;;;;;;;;;5042055;28;19917;-64
2021/11/23 03:04:54;;;;;;;22.23;11.18;;;;;;;;;;5040759;28;20500;-64
2021/11/23 03:07:21;;;;;;;16.00;8.90;;;;;;;;;;5020141;28;20025;-64
2021/11/23 03:09:46;;;;;;;14.07;8.50;;;;;;;;;;5038180;28;20048;-64
2021/11/23 03:12:17;;;;;;;12.93;7.93;;;;;;;;;;5038338;28;20398;-64
2021/11/23 03:14:43;;;;;;;16.45;8.70;;;;;;;;;;5038447;28;20025;-64
2021/11/23 03:17:09;;;;;;;17.40;9.65;;;;;;;;;;5041906;28;20025;-64
2021/11/23 03:19:35;;;;;;;14.55;8.35;;;;;;;;;;5038404;28;20031;-64
2021/11/23 03:22:02;;;;;;;14.73;8.88;;;;;;;;;;5037346;28;20433;-64
2021/11/23 03:24:28;;;;;;;15.18;9.05;;;;;;;;;;5035943;28;20032;-64
2021/11/23 03:26:53;;;;;;;17.00;9.10;;;;;;;;;;5039661;28;20607;-64
2021/11/23 03:29:19;;;;;;;20.80;10.05;;;;;;;;;;5037751;28;20064;-64
2021/11/23 03:31:44;;;;;;;36.80;12.52;;;;;;;;;;5041714;28;20048;-64
2021/11/23 03:34:10;;;;;;;26.67;12.75;;;;;;;;;;5039184;28;20972;-64
2021/11/23 03:36:39;;;;;;;23.92;10.68;;;;;;;;;;5037865;28;20016;-64
2021/11/23 03:39:06;;;;;;;29.95;12.85;;;;;;;;;;5037233;28;20123;-64
2021/11/23 03:41:32;;;;;;;22.55;10.73;;;;;;;;;;5040591;28;20027;-64
2021/11/23 03:43:58;;;;;;;18.45;9.45;;;;;;;;;;5029224;28;20049;-64
2021/11/23 03:46:23;;;;;;;49.22;15.52;;;;;;;;;;5035588;28;20063;-64
2021/11/23 03:48:49;;;;;;;28.02;14.43;;;;;;;;;;5041267;28;20086;-64
2021/11/23 03:51:14;;;;;;;29.08;15.38;;;;;;;;;;5035600;28;20080;-64
2021/11/23 03:53:39;;;;;;;41.65;10.48;;;;;;;;;;5040443;28;20031;-64
2021/11/23 03:56:05;;;;;;;44.72;9.70;;;;;;;;;;5035780;28;20065;-64
2021/11/23 03:58:31;;;;;;;25.50;9.88;;;;;;;;;;5039407;28;20360;-64
2021/11/23 04:00:56;;;;;;;26.67;9.85;;;;;;;;;;5039960;28;20021;-64
2021/11/23 04:03:21;;;;;;;24.90;10.63;;;;;;;;;;5046728;28;20484;-64
2021/11/23 04:05:47;;;;;;;19.95;10.38;;;;;;;;;;5038486;28;20025;-65
2021/11/23 04:08:12;;;;;;;28.60;10.68;;;;;;;;;;5041655;28;20036;-64
2021/11/23 04:10:38;;;;;;;21.67;10.82;;;;;;;;;;5040446;28;20024;-64
2021/11/23 04:13:03;;;;;;;21.55;10.43;;;;;;;;;;5043540;28;20132;-64
2021/11/23 04:15:29;;;;;;;19.95;10.45;;;;;;;;;;5042732;28;20363;-64
2021/11/23 04:17:54;;;;;;;18.73;10.02;;;;;;;;;;5044799;28;20025;-64
2021/11/23 04:20:20;;;;;;;21.38;10.52;;;;;;;;;;5026029;28;20029;-64
2021/11/23 04:22:45;;;;;;;26.35;10.60;;;;;;;;;;5044189;28;20025;-64
2021/11/23 04:25:12;;;;;;;21.40;9.98;;;;;;;;;;5040131;28;20099;-64
2021/11/23 04:27:38;;;;;;;22.60;10.82;;;;;;;;;;5043341;28;20088;-64
2021/11/23 04:30:04;;;;;;;21.55;10.18;;;;;;;;;;5040482;28;20037;-64
2021/11/23 04:32:30;;;;;;;16.42;8.52;;;;;;;;;;5039668;28;20042;-64
2021/11/23 04:34:56;;;;;;;23.75;10.23;;;;;;;;;;5040957;28;20028;-64
2021/11/23 04:37:22;;;;;;;17.00;9.52;;;;;;;;;;5041753;28;20025;-64
2021/11/23 04:39:49;;;;;;;21.15;9.75;;;;;;;;;;5040384;28;20417;-64
2021/11/23 04:42:14;;;;;;;25.23;9.60;;;;;;;;;;5028994;28;20037;-64
2021/11/23 04:44:40;;;;;;;41.30;9.93;;;;;;;;;;5042049;28;20045;-64
2021/11/23 04:47:05;;;;;;;37.58;10.43;;;;;;;;;;5041614;28;20039;-64
2021/11/23 04:49:31;;;;;;;29.50;10.57;;;;;;;;;;5041652;28;20032;-64
2021/11/23 04:51:56;;;;;;;28.10;10.70;;;;;;;;;;5027929;28;20025;-64
2021/11/23 04:54:22;;;;;;;46.55;11.50;;;;;;;;;;5045427;28;20378;-64
2021/11/23 04:56:47;;;;;;;26.23;10.88;;;;;;;;;;5029058;28;20171;-64
2021/11/23 04:59:13;;;;;;;24.40;11.32;;;;;;;;;;5043947;28;20202;-64
2021/11/23 05:01:38;;;;;;;34.97;10.82;;;;;;;;;;5042360;28;20035;-64
2021/11/23 05:04:04;;;;;;;33.72;10.88;;;;;;;;;;5043634;28;20563;-64
2021/11/23 05:06:30;;;;;;;54.70;10.68;;;;;;;;;;5039877;28;20047;-64
2021/11/23 05:08:56;;;;;;;21.52;9.07;;;;;;;;;;5041446;28;20029;-64
2021/11/23 05:11:25;;;;;;;16.60;9.35;;;;;;;;;;5041353;28;20419;-64
2021/11/23 05:13:50;;;;;;;22.42;9.90;;;;;;;;;;5044162;28;20036;-64
2021/11/23 05:16:15;;;;;;;26.70;10.82;;;;;;;;;;5039309;28;20029;-64
2021/11/23 05:18:41;;;;;;;30.27;10.38;;;;;;;;;;5046758;28;20486;-64
2021/11/23 05:21:06;;;;;;;18.08;10.27;;;;;;;;;;5039899;28;20028;-64
2021/11/23 05:23:32;;;;;;;19.08;9.82;;;;;;;;;;5043738;28;20171;-64
2021/11/23 05:25:58;;;;;;;18.45;9.52;;;;;;;;;;5039587;28;20478;-64
2021/11/23 05:28:24;;;;;;;17.48;9.50;;;;;;;;;;5044834;28;20433;-64
2021/11/23 05:30:51;;;;;;;26.55;10.65;;;;;;;;;;5039221;28;20088;-64
2021/11/23 05:33:17;;;;;;;76.03;12.35;;;;;;;;;;5046529;28;20394;-64
2021/11/23 05:35:42;;;;;;;24.27;10.07;;;;;;;;;;5043352;28;20035;-64
2021/11/23 05:38:08;;;;;;;23.67;10.40;;;;;;;;;;5041669;28;20021;-64
2021/11/23 05:40:33;;;;;;;21.88;10.45;;;;;;;;;;5040133;28;20036;-64
2021/11/23 05:42:59;;;;;;;21.42;10.35;;;;;;;;;;5045200;28;20045;-64
2021/11/23 05:45:25;;;;;;;28.27;11.02;;;;;;;;;;5037747;28;20029;-64
2021/11/23 05:47:50;;;;;;;19.45;9.80;;;;;;;;;;5041223;28;20029;-64
2021/11/23 05:50:16;;;;;;;46.75;18.33;;;;;;;;;;5041513;28;20517;-64
2021/11/23 05:52:41;;;;;;;33.75;14.00;;;;;;;;;;5040462;28;20025;-64
2021/11/23 05:55:07;;;;;;;29.02;14.13;;;;;;;;;;5038833;28;20048;-65
2021/11/23 05:57:33;;;;;;;54.28;10.73;;;;;;;;;;5034717;28;20414;-65
2021/11/23 05:59:58;;;;;;;37.45;12.27;;;;;;;;;;5042798;28;20232;-65
2021/11/23 06:02:23;;;;;;;25.15;11.48;;;;;;;;;;5042797;28;20029;-65
2021/11/23 06:04:49;;;;;;;29.95;10.75;;;;;;;;;;5041309;28;20028;-65
2021/11/23 06:07:14;;;;;;;79.38;10.48;;;;;;;;;;5042836;28;20048;-65
2021/11/23 06:09:40;;;;;;;41.00;10.68;;;;;;;;;;5020739;28;20131;-65
2021/11/23 06:12:06;;;;;;;27.77;10.63;;;;;;;;;;5044233;28;20542;-65
2021/11/23 06:14:31;;;;;;;24.65;9.63;;;;;;;;;;5041571;28;20026;-65
2021/11/23 06:16:57;;;;;;;29.60;9.73;;;;;;;;;;5039105;28;20336;-65
2021/11/23 06:19:23;;;;;;;24.17;9.18;;;;;;;;;;5042483;28;20029;-65
2021/11/23 06:21:48;;;;;;;17.65;9.32;;;;;;;;;;5040588;28;20401;-66
2021/11/23 06:24:14;;;;;;;23.80;9.70;;;;;;;;;;5039710;28;20025;-65
2021/11/23 06:26:39;;;;;;;18.67;9.13;;;;;;;;;;5045355;28;20056;-66
2021/11/23 06:29:05;;;;;;;28.30;9.95;;;;;;;;;;5045714;28;20839;-65
2021/11/23 06:31:31;;;;;;;32.10;10.07;;;;;;;;;;5026626;28;20088;-65
2021/11/23 06:33:58;;;;;;;29.13;10.73;;;;;;;;;;5017828;28;20514;-65
2021/11/23 06:36:25;;;;;;;17.83;9.88;;;;;;;;;;5017726;28;20108;-65
2021/11/23 06:38:51;;;;;;;22.50;10.07;;;;;;;;;;5017402;28;20109;-65
2021/11/23 06:41:18;;;;;;;18.25;9.23;;;;;;;;;;5019739;28;20060;-65
2021/11/23 06:43:45;;;;;;;18.67;9.63;;;;;;;;;;5024071;28;20033;-66
2021/11/23 06:46:11;;;;;;;22.27;9.45;;;;;;;;;;5017549;28;20040;-65
2021/11/23 06:48:37;;;;;;;30.23;9.43;;;;;;;;;;5022875;28;20036;-65
2021/11/23 06:51:02;;;;;;;24.73;10.45;;;;;;;;;;5016943;28;20022;-65
2021/11/23 06:53:28;;;;;;;18.23;9.52;;;;;;;;;;5021377;28;20021;-65
2021/11/23 06:55:53;;;;;;;23.75;9.50;;;;;;;;;;5018471;28;20599;-66
2021/11/23 06:58:19;;;;;;;38.40;9.85;;;;;;;;;;5009643;28;20026;-65
2021/11/23 07:00:45;;;;;;;28.70;9.77;;;;;;;;;;5018797;28;20037;-65
2021/11/23 07:03:10;;;;;;;23.08;10.15;;;;;;;;;;5005748;28;20025;-65
2021/11/23 07:05:36;;;;;;;66.70;10.43;;;;;;;;;;5001032;28;20065;-65
2021/11/23 07:08:02;;;;;;;32.40;9.80;;;;;;;;;;4987581;28;20037;-65
2021/11/23 07:10:27;;;;;;;32.17;9.40;;;;;;;;;;5003863;28;20587;-66
2021/11/23 07:12:53;;;;;;;39.42;10.52;;;;;;;;;;5009636;28;20034;-65
2021/11/23 07:15:18;;;;;;;25.10;10.05;;;;;;;;;;4989137;28;20066;-65
2021/11/23 07:17:44;;;;;;;19.85;9.88;;;;;;;;;;4991463;28;20029;-65
2021/11/23 07:20:10;;;;;;;20.25;10.40;;;;;;;;;;5007439;28;20052;-65
2021/11/23 07:22:35;;;;;;;27.95;10.43;;;;;;;;;;5007770;28;20418;-65
2021/11/23 07:25:01;;;;;;;18.58;10.40;;;;;;;;;;5008664;28;20033;-65
2021/11/23 07:27:28;;;;;;;28.42;9.55;;;;;;;;;;5010936;28;20037;-65
2021/11/23 07:29:53;;;;;;;33.47;10.43;;;;;;;;;;5008653;28;20415;-65
2021/11/23 07:32:19;;;;;;;31.25;10.60;;;;;;;;;;5024340;28;20087;-65
2021/11/23 07:34:45;;;;;;;32.08;10.20;;;;;;;;;;5024858;28;20210;-65
2021/11/23 07:37:10;;;;;;;31.08;9.73;;;;;;;;;;5027548;28;20128;-64
2021/11/23 07:39:37;;;;;;;43.13;9.90;;;;;;;;;;5025497;28;20021;-65
2021/11/23 07:42:04;;;;;;;46.63;10.82;;;;;;;;;;5028441;28;20095;-64
2021/11/23 07:44:30;;;;;;;49.15;10.77;;;;;;;;;;5027579;28;20029;-65
2021/11/23 07:46:55;;;;;;;31.77;10.93;;;;;;;;;;5033574;28;20037;-64
2021/11/23 07:49:21;;;;;;;25.23;10.18;;;;;;;;;;5024338;28;20026;-64
2021/11/23 07:51:48;;;;;;;54.83;11.63;;;;;;;;;;5030932;28;20021;-65
2021/11/23 07:54:14;;;;;;;19.75;10.68;;;;;;;;;;5027077;28;20866;-65
2021/11/23 07:56:40;;;;;;;24.90;10.85;;;;;;;;;;5016636;28;20036;-65
2021/11/23 07:59:08;;;;;;;27.55;10.98;;;;;;;;;;5021124;28;20025;-65
2021/11/23 08:01:33;;;;;;;26.60;12.02;;;;;;;;;;5022780;28;20151;-65
2021/11/23 08:03:59;;;;;;;25.83;12.13;;;;;;;;;;5020482;28;20509;-65
2021/11/23 08:06:24;;;;;;;26.67;13.32;;;;;;;;;;5013992;28;20041;-65
2021/11/23 08:08:49;;;;;;;28.75;12.27;;;;;;;;;;5025471;28;20119;-65
2021/11/23 08:11:15;;;;;;;24.20;11.35;;;;;;;;;;5037031;28;20037;-65
2021/11/23 08:13:40;;;;;;;26.15;12.45;;;;;;;;;;5040060;28;20105;-65
2021/11/23 08:16:06;;;;;;;20.83;11.27;;;;;;;;;;5031077;28;20102;-65
2021/11/23 08:18:33;;;;;;;20.10;10.95;;;;;;;;;;5040708;28;20362;-64
2021/11/23 08:20:59;;;;;;;28.55;14.40;;;;;;;;;;5038457;28;20149;-64
2021/11/23 08:23:25;;;;;;;24.30;12.00;;;;;;;;;;5040748;28;20061;-64
2021/11/23 08:25:53;;;;;;;21.67;11.15;;;;;;;;;;5031763;28;20390;-64
2021/11/23 08:28:19;;;;;;;47.78;11.77;;;;;;;;;;5047408;28;20548;-64
2021/11/23 08:30:46;;;;;;;31.63;13.23;;;;;;;;;;5038355;28;20128;-64
2021/11/23 08:33:12;;;;;;;26.95;12.90;;;;;;;;;;5032533;28;20028;-64
2021/11/23 08:35:38;;;;;;;31.80;15.63;;;;;;;;;;5025554;28;20025;-64
2021/11/23 08:38:04;;;;;;;22.73;11.90;;;;;;;;;;5033660;28;20524;-64
2021/11/23 08:40:30;;;;;;;26.30;12.55;;;;;;;;;;5032274;28;20132;-64
2021/11/23 08:42:55;;;;;;;21.05;10.70;;;;;;;;;;5032028;28;20053;-64
2021/11/23 08:45:21;;;;;;;19.55;11.18;;;;;;;;;;5024399;28;20036;-64
2021/11/23 08:47:48;;;;;;;22.88;13.48;;;;;;;;;;5026504;28;20040;-64
2021/11/23 08:50:13;;;;;;;21.38;11.02;;;;;;;;;;5023122;28;20111;-64
2021/11/23 08:52:39;;;;;;;18.08;10.73;;;;;;;;;;5015437;28;20030;-64
2021/11/23 08:55:06;;;;;;;16.42;10.00;;;;;;;;;;5026160;28;20390;-64
2021/11/23 08:57:32;;;;;;;19.88;10.70;;;;;;;;;;5031363;28;20430;-64
2021/11/23 09:02:46;;;;;;;18.38;10.15;;;;;;;;;;5022035;28;20075;-64
2021/11/23 09:05:12;;;;;;;30.05;11.02;;;;;;;;;;5026968;28;20430;-64
2021/11/23 09:07:39;;;;;;;19.57;11.00;;;;;;;;;;5037720;28;20446;-64
2021/11/23 09:10:06;;;;;;;18.98;10.98;;;;;;;;;;5029050;28;20038;-64
2021/11/23 09:12:32;;;;;;;19.45;11.77;;;;;;;;;;5032319;28;20143;-64
2021/11/23 09:14:57;;;;;;;18.77;10.95;;;;;;;;;;5037914;28;20116;-64
2021/11/23 09:17:23;;;;;;;22.95;11.50;;;;;;;;;;5014981;28;20506;-64
2021/11/23 09:19:48;;;;;;;22.58;11.95;;;;;;;;;;5038531;28;20029;-64
2021/11/23 09:22:14;;;;;;;21.80;11.55;;;;;;;;;;5026409;28;20035;-64
2021/11/23 09:24:39;;;;;;;22.35;11.57;;;;;;;;;;5031408;28;20104;-64
2021/11/23 09:27:05;;;;;;;21.35;11.40;;;;;;;;;;5029232;28;20120;-64
2021/11/23 09:29:30;;;;;;;21.02;11.73;;;;;;;;;;5034993;28;20355;-64
2021/11/23 09:31:57;;;;;;;21.05;11.23;;;;;;;;;;5029515;28;20080;-64
2021/11/23 09:34:23;;;;;;;20.92;11.60;;;;;;;;;;5032580;28;20447;-64
2021/11/23 09:36:50;;;;;;;20.20;10.55;;;;;;;;;;5032878;28;20487;-64
2021/11/23 09:39:15;;;;;;;20.08;10.65;;;;;;;;;;5036723;28;20033;-64
2021/11/23 09:41:42;;;;;;;25.45;11.63;;;;;;;;;;5037050;28;21495;-64
2021/11/23 09:44:08;;;;;;;21.10;10.93;;;;;;;;;;5036905;28;20059;-64
2021/11/23 09:46:36;;;;;;;19.63;11.38;;;;;;;;;;5038455;28;20064;-64
2021/11/23 09:49:03;;;;;;;20.52;11.27;;;;;;;;;;5023054;28;20040;-64
2021/11/23 09:51:29;;;;;;;22.55;12.27;;;;;;;;;;5027090;28;20037;-64
2021/11/23 09:53:58;;;;;;;21.00;11.90;;;;;;;;;;5023615;28;20087;-64
2021/11/23 09:56:24;;;;;;;20.02;11.27;;;;;;;;;;5020807;28;20036;-64
2021/11/23 09:58:55;;;;;;;20.38;11.48;;;;;;;;;;5027171;28;20037;-64
2021/11/23 10:01:23;;;;;;;20.17;11.57;;;;;;;;;;5028439;28;20021;-64
2021/11/23 10:03:48;;;;;;;19.83;10.95;;;;;;;;;;5021883;28;20041;-64
2021/11/23 10:06:19;;;;;;;20.63;11.55;;;;;;;;;;5027786;28;20079;-64
2021/11/23 10:08:46;;;;;;;20.60;11.25;;;;;;;;;;5028321;28;20463;-64
2021/11/23 10:11:21;;;;;;;22.35;12.40;;;;;;;;;;5031625;28;20025;-63
2021/11/23 10:13:49;;;;;;;18.55;11.57;;;;;;;;;;5025822;28;20025;-64
2021/11/23 10:16:16;;;;;;;21.90;12.32;;;;;;;;;;5031425;28;20538;-64
2021/11/23 10:18:42;;;;;;;21.80;12.25;;;;;;;;;;5031957;28;20048;-64
2021/11/23 10:21:11;;;;;;;21.27;13.02;;;;;;;;;;5034688;28;20025;-64
2021/11/23 10:23:41;;;;;;;22.50;12.15;;;;;;;;;;5047383;28;20484;-64
2021/11/23 10:26:17;;;;;;;19.75;11.52;;;;;;;;;;5032126;28;20036;-64
2021/11/23 10:28:48;;;;;;;22.45;12.65;;;;;;;;;;5031364;28;20030;-64
2021/11/23 10:31:14;;;;;;;23.40;13.13;;;;;;;;;;5031868;28;20052;-65
2021/11/23 10:33:42;;;;;;;22.52;12.88;;;;;;;;;;5043435;28;20032;-65
2021/11/23 10:36:15;;;;;;;19.75;12.13;;;;;;;;;;5028470;28;20052;-65
2021/11/23 10:38:42;;;;;;;20.73;12.20;;;;;;;;;;5013272;28;20032;-65
2021/11/23 10:41:10;;;;;;;20.73;12.18;;;;;;;;;;5036547;28;20034;-65
2021/11/23 10:43:40;;;;;;;19.38;12.32;;;;;;;;;;5041118;28;20063;-65
2021/11/23 10:46:32;;;;;;;22.02;13.68;;;;;;;;;;5034610;28;20044;-65
2021/11/23 10:49:02;;;;;;;25.73;13.20;;;;;;;;;;5027527;28;20076;-65
2021/11/23 10:51:40;;;;;;;21.02;11.90;;;;;;;;;;5032930;28;20068;-64
2021/11/23 10:54:16;;;;;;;20.73;11.45;;;;;;;;;;5033404;28;20040;-64
2021/11/23 10:57:09;;;;;;;20.42;12.25;;;;;;;;;;5033612;28;20352;-64
2021/11/23 10:59:39;;;;;;;21.20;11.70;;;;;;;;;;5022420;28;20024;-64
2021/11/23 11:02:05;;;;;;;24.95;13.32;;;;;;;;;;5030630;28;20088;-64
2021/11/23 11:04:43;;;;;;;21.13;11.32;;;;;;;;;;5034313;28;20027;-64
2021/11/23 11:07:10;;;;;;;24.88;13.15;;;;;;;;;;5020964;28;20026;-64
2021/11/23 11:09:37;;;;;;;25.90;14.13;;;;;;;;;;5035651;28;20343;-65
2021/11/23 11:12:06;;;;;;;22.27;12.80;;;;;;;;;;5049168;28;20032;-64
2021/11/23 11:14:51;;;;;;;22.60;12.85;;;;;;;;;;5032305;28;20540;-64
2021/11/23 11:17:23;;;;;;;23.50;13.60;;;;;;;;;;5027175;28;20038;-64
2021/11/23 11:19:55;;;;;;;23.13;12.77;;;;;;;;;;5004656;28;20017;-64
2021/11/23 11:22:26;;;;;;;23.15;13.70;;;;;;;;;;5028572;28;20029;-65
2021/11/23 11:25:08;;;;;;;24.45;13.52;;;;;;;;;;5016214;28;20360;-64
2021/11/23 11:27:35;;;;;;;24.42;13.05;;;;;;;;;;5051640;28;20100;-65
2021/11/23 11:30:36;;;;;;;24.65;12.90;;;;;;;;;;5042463;28;20029;-64
2021/11/23 11:33:08;;;;;;;23.42;12.63;;;;;;;;;;5044446;28;20041;-65
2021/11/23 11:35:45;;;;;;;23.40;13.32;;;;;;;;;;5030523;28;20446;-65
2021/11/23 11:38:29;;;;;;;22.15;12.63;;;;;;;;;;5031094;28;20087;-65
2021/11/23 11:41:06;;;;;;;23.17;13.48;;;;;;;;;;5032855;28;20033;-65
2021/11/23 11:43:37;;;;;;;23.83;13.57;;;;;;;;;;5031721;28;20028;-65
2021/11/23 11:46:04;;;;;;;22.83;13.45;;;;;;;;;;5031450;28;20129;-65
2021/11/23 11:48:35;;;;;;;23.90;14.43;;;;;;;;;;5033397;28;20379;-65
2021/11/23 11:51:09;;;;;;;24.90;14.00;;;;;;;;;;5031145;28;20082;-65
2021/11/23 11:53:42;;;;;;;25.80;14.15;;;;;;;;;;5030343;28;20055;-65
2021/11/23 11:56:39;;;;;;;27.23;15.38;;;;;;;;;;5032785;28;20083;-65
2021/11/23 11:59:30;;;;;;;27.92;16.08;;;;;;;;;;5036397;28;20155;-65
2021/11/23 12:02:15;;;;;;;24.75;14.65;;;;;;;;;;5027589;28;20063;-65
2021/11/23 12:04:54;;;;;;;27.33;14.38;;;;;;;;;;5029498;28;20064;-65
2021/11/23 12:07:21;;;;;;;27.88;15.13;;;;;;;;;;5033200;28;20025;-65
2021/11/23 12:09:50;;;;;;;26.13;14.73;;;;;;;;;;5033724;28;20536;-65
2021/11/23 12:19:17;;;;;;;30.85;14.65;;;;;;;;;;5040236;28;20075;-65
2021/11/23 12:21:57;;;;;;;25.60;14.50;;;;;;;;;;5026504;28;20390;-65
2021/11/23 12:24:38;;;;;;;28.45;14.43;;;;;;;;;;5039770;28;20049;-65
2021/11/23 12:27:17;;;;;;;23.50;13.27;;;;;;;;;;5033595;28;20032;-65
2021/11/23 12:29:46;;;;;;;23.52;13.00;;;;;;;;;;5014511;28;20021;-65
2021/11/23 12:32:13;;;;;;;24.38;13.52;;;;;;;;;;5016572;28;20037;-65
2021/11/23 12:35:00;;;;;;;21.83;12.93;;;;;;;;;;5031740;28;20029;-65
2021/11/23 12:37:43;;;;;;;21.73;13.15;;;;;;;;;;5036070;28;20358;-65
2021/11/23 12:40:17;;;;;;;20.73;12.27;;;;;;;;;;5035647;28;20029;-65
2021/11/23 12:42:53;;;;;;;20.58;12.48;;;;;;;;;;5035820;28;20030;-65
2021/11/23 12:45:41;;;;;;;24.45;12.73;;;;;;;;;;5035225;28;20053;-65
2021/11/23 12:48:15;;;;;;;21.67;12.90;;;;;;;;;;5034679;28;20072;-65
2021/11/23 12:50:43;;;;;;;24.60;13.18;;;;;;;;;;5029740;28;20095;-65
2021/11/23 12:53:16;;;;;;;25.88;13.75;;;;;;;;;;5034481;28;20033;-65
2021/11/23 12:55:53;;;;;;;20.13;13.20;;;;;;;;;;5029504;28;20024;-65
2021/11/23 12:58:20;;;;;;;23.92;13.13;;;;;;;;;;5040001;28;20021;-65
2021/11/23 13:00:46;;;;;;;23.63;13.82;;;;;;;;;;5041436;28;20033;-65
2021/11/23 13:03:11;;;;;;;25.63;13.68;;;;;;;;;;5036548;28;20418;-65
2021/11/23 13:05:39;;;;;;;21.50;12.57;;;;;;;;;;5043495;28;20032;-65
2021/11/23 13:08:08;;;;;;;26.33;14.27;;;;;;;;;;5041635;28;20037;-65
2021/11/23 13:10:46;;;;;;;23.15;13.50;;;;;;;;;;5041208;28;20441;-65
2021/11/23 13:13:14;;;;;;;21.58;12.63;;;;;;;;;;5039538;28;20025;-64
2021/11/23 13:15:46;;;;;;;23.50;14.00;;;;;;;;;;5039781;28;20046;-65
2021/11/23 13:18:23;;;;;;;28.13;15.23;;;;;;;;;;5033108;28;20025;-65
2021/11/23 13:20:58;;;;;;;31.33;14.88;;;;;;;;;;5034194;28;20029;-64
2021/11/23 13:23:33;;;;;;;28.95;15.90;;;;;;;;;;5017491;28;20038;-65
2021/11/23 13:26:03;;;;;;;31.02;15.18;;;;;;;;;;5035526;28;20507;-64
2021/11/23 13:28:42;;;;;;;29.95;16.00;;;;;;;;;;5039460;28;20491;-65
2021/11/23 13:31:09;;;;;;;31.98;16.02;;;;;;;;;;5022059;28;20037;-64
2021/11/23 13:33:39;;;;;;;29.88;16.45;;;;;;;;;;5024208;28;20029;-64
2021/11/23 13:36:04;;;;;;;32.08;15.98;;;;;;;;;;5037582;28;20108;-65
2021/11/23 13:38:32;;;;;;;25.52;15.75;;;;;;;;;;5042226;28;20164;-65
2021/11/23 13:40:59;;;;;;;30.48;16.50;;;;;;;;;;5035705;28;20028;-66
2021/11/23 13:43:25;;;;;;;30.10;15.65;;;;;;;;;;5051667;28;20037;-65
2021/11/23 13:46:06;;;;;;;27.25;15.80;;;;;;;;;;5035440;28;20029;-65
2021/11/23 13:48:31;;;;;;;26.00;15.02;;;;;;;;;;5040005;28;20401;-65
2021/11/23 13:51:07;;;;;;;27.92;15.57;;;;;;;;;;5027909;28;20025;-65
2021/11/23 13:54:13;;;;;;;24.45;15.07;;;;;;;;;;5026514;28;20022;-65
2021/11/23 13:56:49;;;;;;;27.20;14.80;;;;;;;;;;5010045;28;20036;-66
2021/11/23 13:59:16;;;;;;;25.60;14.32;;;;;;;;;;5018480;28;20357;-66
2021/11/23 14:02:00;;;;;;;31.30;16.37;;;;;;;;;;5038621;28;20434;-66
2021/11/23 14:04:30;;;;;;;29.85;15.23;;;;;;;;;;5035335;28;20068;-65
2021/11/23 14:07:02;;;;;;;27.23;15.90;;;;;;;;;;5035434;28;20039;-65
2021/11/23 14:09:55;;;;;;;27.50;14.07;;;;;;;;;;5036662;28;20413;-66
2021/11/23 14:12:22;;;;;;;26.42;14.73;;;;;;;;;;5034500;28;20029;-66
2021/11/23 14:15:03;;;;;;;22.92;14.45;;;;;;;;;;5036435;28;20608;-66
2021/11/23 14:17:57;;;;;;;26.55;14.75;;;;;;;;;;5007975;28;20099;-65
2021/11/23 14:20:32;;;;;;;25.45;15.30;;;;;;;;;;5030565;28;20025;-66
2021/11/23 14:23:06;;;;;;;28.10;14.93;;;;;;;;;;5037908;28;20029;-66
2021/11/23 14:25:33;;;;;;;27.63;14.73;;;;;;;;;;4326051;28;10021574;-65
2021/11/23 14:28:04;;;;;;;25.67;14.68;;;;;;;;;;5036984;28;20021;-66
2021/11/23 14:30:31;;;;;;;23.35;14.27;;;;;;;;;;5029492;28;20137;-66
2021/11/23 14:32:58;;;;;;;25.20;14.18;;;;;;;;;;5032225;28;20439;-65
2021/11/23 14:35:25;;;;;;;24.87;14.83;;;;;;;;;;5040046;28;20033;-66
2021/11/23 14:37:50;;;;;;;25.77;13.88;;;;;;;;;;5016054;28;20341;-66